SESA/SNC METAR and TAF weather

Enter ICAO airport designator
Station Type Date Time Source
SESA METAR 2020/07/13 17:00 UTC NOAA

SESA 131700Z 18011KT 9999 BKN015 24/20 Q1014 RMK A2996


Station Type Date Time Source
SESA Decoded METAR 2020/07/13 17:00 UTC NOAA

Salinas / General Ulpiano Paez, Ecuador (SESA) 02-12S 080-59W 8M
Jul 13, 2020 - 01:00 PM EDT / 2020.07.13 1700 UTC
Wind: from the S (180 degrees) at 13 MPH (11 KT):0
Visibility: greater than 7 mile(s):0
Sky conditions: mostly cloudy
Temperature: 75 F (24 C)
Dew Point: 68 F (20 C)
Relative Humidity: 78%
Pressure (altimeter): 29.94 in. Hg (1014 hPa)
ob: SESA 131700Z 18011KT 9999 BKN015 24/20 Q1014 RMK A2996
cycle: 17

Station Type Date Time Source
SESA TAF UTC NOAA

Error!

Example: see airport list